createdAt,value
2018-02-21T00:01:31.284Z,42.47
2018-02-21T00:04:01.748Z,44.70
2018-02-21T00:06:32.711Z,45.37
2018-02-21T00:09:03.741Z,44.60
2018-02-21T00:11:35.327Z,45.03
2018-02-21T00:14:06.620Z,45.85
2018-02-21T00:16:37.468Z,44.73
2018-02-21T00:19:08.775Z,42.75
2018-02-21T00:21:39.355Z,42.88
2018-02-21T00:24:09.877Z,43.47
2018-02-21T00:26:41.111Z,42.58
2018-02-21T00:29:12.742Z,42.45
2018-02-21T00:31:44.014Z,45.20
2018-02-21T00:34:14.483Z,44.80
2018-02-21T00:36:45.476Z,44.75
2018-02-21T00:39:16.191Z,41.75
2018-02-21T00:41:46.990Z,43.20
2018-02-21T00:44:17.678Z,45.47
2018-02-21T00:46:49.877Z,42.78
2018-02-21T00:49:20.931Z,41.10
2018-02-21T00:51:51.139Z,43.47
2018-02-21T00:54:21.421Z,42.47
2018-02-21T00:56:52.084Z,42.85
2018-02-21T00:59:23.502Z,42.88
2018-02-21T01:01:53.780Z,45.00
2018-02-21T01:04:24.804Z,41.20
2018-02-21T01:06:56.131Z,44.40
2018-02-21T01:09:27.630Z,43.60
2018-02-21T01:11:59.542Z,43.90
2018-02-21T01:14:30.305Z,41.95
2018-02-21T01:17:01.380Z,43.08
2018-02-21T01:19:32.271Z,41.53
2018-02-21T01:22:02.661Z,42.58
2018-02-21T01:24:33.033Z,41.88
2018-02-21T01:27:04.166Z,41.42
2018-02-21T01:29:35.360Z,41.80
2018-02-21T01:32:06.547Z,43.33
2018-02-21T01:34:37.512Z,41.78
2018-02-21T01:37:08.696Z,42.35
2018-02-21T01:39:39.481Z,43.50
2018-02-21T01:42:12.264Z,43.58
2018-02-21T01:44:43.280Z,45.63
2018-02-21T01:47:14.202Z,44.90
2018-02-21T01:49:45.166Z,43.90
2018-02-21T01:52:16.108Z,44.75
2018-02-21T01:54:47.647Z,44.83
2018-02-21T01:57:19.638Z,45.30
2018-02-21T01:59:51.169Z,45.75
2018-02-21T02:02:22.032Z,47.05
2018-02-21T02:04:52.628Z,46.10
2018-02-21T02:07:23.295Z,46.85
2018-02-21T02:09:55.278Z,46.35
2018-02-21T02:12:25.963Z,46.03
2018-02-21T02:14:56.696Z,45.63
2018-02-21T02:17:27.450Z,46.47
2018-02-21T02:19:58.942Z,48.00
2018-02-21T02:22:29.635Z,46.50
2018-02-21T02:25:00.332Z,47.75
2018-02-21T02:27:31.700Z,47.50
2018-02-21T02:30:03.048Z,42.08
2018-02-21T02:32:34.773Z,45.40
2018-02-21T02:35:06.425Z,47.00
2018-02-21T02:37:37.698Z,48.35
2018-02-21T02:40:09.558Z,46.75
2018-02-21T02:42:40.739Z,49.70
2018-02-21T02:45:12.358Z,49.65
2018-02-21T02:47:43.543Z,49.25
2018-02-21T02:50:14.658Z,49.22
2018-02-21T02:52:46.606Z,48.90
2018-02-21T02:55:18.114Z,49.75
2018-02-21T02:57:49.119Z,49.55
2018-02-21T03:00:21.099Z,50.30
2018-02-21T03:02:51.855Z,49.33
2018-02-21T03:05:23.685Z,49.70
2018-02-21T03:07:54.630Z,50.55
2018-02-21T03:10:26.246Z,48.78
2018-02-21T03:12:57.996Z,48.23
2018-02-21T03:15:28.818Z,49.88
2018-02-21T03:17:59.715Z,49.75
2018-02-21T03:20:30.465Z,52.47
2018-02-21T03:23:02.171Z,52.17
2018-02-21T03:25:33.308Z,50.55
2018-02-21T03:28:03.681Z,49.78
2018-02-21T03:30:34.091Z,54.75
2018-02-21T03:33:04.300Z,51.77
2018-02-21T03:35:34.910Z,51.08
2018-02-21T03:38:06.008Z,55.55
2018-02-21T03:40:36.733Z,53.10
2018-02-21T03:43:07.839Z,51.83
2018-02-21T03:45:38.974Z,52.60
2018-02-21T03:48:10.234Z,52.95
2018-02-21T03:50:41.430Z,50.70
2018-02-21T03:53:12.671Z,52.17
2018-02-21T03:55:43.384Z,54.90
2018-02-21T03:58:14.252Z,52.35
2018-02-21T04:00:45.685Z,51.75
2018-02-21T04:03:16.805Z,53.08
2018-02-21T04:05:47.684Z,51.55
2018-02-21T04:08:17.883Z,51.63
2018-02-21T04:10:48.492Z,49.23
2018-02-21T04:13:19.254Z,50.35
2018-02-21T04:15:49.990Z,50.40
2018-02-21T04:18:20.635Z,51.80
2018-02-21T04:20:51.319Z,50.92
2018-02-21T04:23:23.524Z,50.90
2018-02-21T04:25:54.808Z,48.65
2018-02-21T04:28:25.955Z,53.20
2018-02-21T04:30:57.882Z,48.42
2018-02-21T04:33:29.756Z,51.30
2018-02-21T04:36:00.928Z,52.80
2018-02-21T04:38:31.761Z,52.60
2018-02-21T04:41:03.033Z,53.28
2018-02-21T04:43:33.892Z,55.90
2018-02-21T04:46:04.892Z,59.00
2018-02-21T04:48:35.964Z,55.00
2018-02-21T04:51:08.644Z,49.40
2018-02-21T04:53:40.203Z,46.40
2018-02-21T04:56:10.959Z,45.13
2018-02-21T04:58:42.045Z,46.75
2018-02-21T05:01:12.887Z,46.20
2018-02-21T05:03:44.414Z,46.50
2018-02-21T05:06:16.638Z,48.28
2018-02-21T05:08:47.902Z,43.78
2018-02-21T05:11:18.361Z,43.22
2018-02-21T05:13:49.052Z,40.45
2018-02-21T05:16:19.843Z,39.47
2018-02-21T05:18:52.388Z,38.75
2018-02-21T05:21:24.933Z,39.80
2018-02-21T05:23:55.674Z,36.40
2018-02-21T05:26:26.604Z,36.67
2018-02-21T05:28:57.174Z,37.85
2018-02-21T05:31:28.330Z,41.22
2018-02-21T05:33:59.391Z,39.90
2018-02-21T05:36:30.509Z,39.65
2018-02-21T05:39:01.384Z,42.35
2018-02-21T05:41:33.235Z,45.27
2018-02-21T05:44:04.307Z,44.28
2018-02-21T05:46:35.541Z,40.57
2018-02-21T05:49:07.271Z,37.78
2018-02-21T05:51:45.604Z,37.93
2018-02-21T05:54:17.096Z,39.70
2018-02-21T05:56:50.578Z,37.22
2018-02-21T05:59:28.334Z,37.20
2018-02-21T06:02:00.727Z,36.63
2018-02-21T06:04:34.563Z,36.20
2018-02-21T06:07:10.245Z,36.40
2018-02-21T06:09:42.388Z,37.10
2018-02-21T06:12:13.979Z,36.28
2018-02-21T06:14:49.245Z,36.22
2018-02-21T06:17:21.533Z,34.55
2018-02-21T06:19:55.536Z,37.63
2018-02-21T06:22:26.464Z,33.17
2018-02-21T06:24:57.101Z,35.65
2018-02-21T06:27:27.911Z,33.42
2018-02-21T06:30:24.470Z,35.28
2018-02-21T06:32:55.915Z,35.38
2018-02-21T06:35:37.506Z,38.03
2018-02-21T06:38:39.457Z,37.72
2018-02-21T06:41:13.775Z,41.00
2018-02-21T06:43:44.620Z,41.25
2018-02-21T06:46:17.116Z,39.80
2018-02-21T06:48:50.748Z,40.67
2018-02-21T06:51:24.128Z,36.95
2018-02-21T06:57:23.573Z,40.65
2018-02-21T07:00:13.103Z,37.13
2018-02-21T07:02:43.503Z,36.28
2018-02-21T07:05:20.846Z,39.50
2018-02-21T07:15:02.725Z,42.00
2018-02-21T07:17:35.877Z,42.95
2018-02-21T07:23:09.069Z,42.08
2018-02-21T07:25:39.828Z,40.33
2018-02-21T07:28:11.319Z,40.92
2018-02-21T07:32:06.339Z,41.47
2018-02-21T07:34:36.830Z,40.80
2018-02-21T07:37:07.434Z,43.53
2018-02-21T07:39:38.795Z,41.27
2018-02-21T07:42:09.733Z,42.45
2018-02-21T07:44:43.432Z,42.70
2018-02-21T07:47:48.215Z,45.10
2018-02-21T07:50:19.716Z,39.73
2018-02-21T07:52:51.789Z,39.33
2018-02-21T07:55:23.962Z,41.92
2018-02-21T07:57:54.932Z,41.67
2018-02-21T08:00:28.034Z,41.22
2018-02-21T08:02:59.550Z,42.00
2018-02-21T08:05:34.544Z,37.90
2018-02-21T08:08:06.521Z,39.33
2018-02-21T08:10:36.702Z,40.67
2018-02-21T08:13:08.789Z,37.80
2018-02-21T08:15:49.630Z,41.20
2018-02-21T08:18:22.834Z,42.00
2018-02-21T08:20:54.322Z,41.90
2018-02-21T08:23:43.518Z,41.37
2018-02-21T08:26:14.473Z,37.80
2018-02-21T08:28:46.072Z,38.13
2018-02-21T08:31:17.251Z,36.72
2018-02-21T08:33:58.876Z,39.25
2018-02-21T08:36:56.377Z,38.33
2018-02-21T08:39:44.159Z,34.67
2018-02-21T08:42:32.228Z,36.83
2018-02-21T08:45:29.506Z,36.20
2018-02-21T08:48:04.313Z,36.53
2018-02-21T08:50:39.473Z,36.80
2018-02-21T08:53:13.560Z,39.20
2018-02-21T08:56:34.454Z,35.90
2018-02-21T09:00:24.231Z,34.47
2018-02-21T09:03:00.595Z,33.38
2018-02-21T09:05:33.093Z,33.95
2018-02-21T09:08:04.039Z,32.78
2018-02-21T09:10:35.737Z,31.00
2018-02-21T09:13:06.691Z,35.28
2018-02-21T09:15:37.501Z,35.45
2018-02-21T09:18:08.192Z,32.17
2018-02-21T09:20:39.471Z,32.25
2018-02-21T09:23:10.630Z,33.83
2018-02-21T09:25:44.457Z,33.28
2018-02-21T09:28:18.080Z,32.77
2018-02-21T09:30:49.585Z,33.40
2018-02-21T09:33:20.994Z,33.90
2018-02-21T09:35:56.523Z,34.83
2018-02-21T09:38:29.971Z,34.15
2018-02-21T09:41:01.750Z,36.72
2018-02-21T09:43:32.548Z,38.85
2018-02-21T09:46:44.667Z,38.40
2018-02-21T09:49:30.617Z,38.65
2018-02-21T09:52:01.594Z,36.92
2018-02-21T09:54:38.637Z,34.63
2018-02-21T09:57:13.118Z,37.00
2018-02-21T09:59:45.363Z,37.63
2018-02-21T10:02:21.811Z,36.92
2018-02-21T10:04:52.906Z,39.20
2018-02-21T10:07:23.689Z,34.60
2018-02-21T10:09:57.837Z,39.25
2018-02-21T10:12:30.114Z,37.20
2018-02-21T10:15:01.212Z,35.75
2018-02-21T10:21:08.301Z,38.63
2018-02-21T10:23:39.137Z,38.00
2018-02-21T10:26:10.717Z,39.47
2018-02-21T10:28:42.281Z,39.88
2018-02-21T10:31:12.967Z,39.78
2018-02-21T10:33:45.902Z,39.08
2018-02-21T10:36:17.338Z,40.12
2018-02-21T10:38:47.801Z,42.55
2018-02-21T10:41:19.210Z,37.95
2018-02-21T10:43:50.774Z,39.05
2018-02-21T10:46:22.705Z,39.72
2018-02-21T10:49:15.217Z,36.35
2018-02-21T10:51:45.902Z,39.20
2018-02-21T10:54:20.695Z,39.80
2018-02-21T10:56:53.603Z,42.13
2018-02-21T10:59:25.259Z,40.33
2018-02-21T11:01:57.720Z,40.42
2018-02-21T11:04:42.765Z,39.78
2018-02-21T11:10:54.643Z,39.88
2018-02-21T11:13:24.982Z,38.87
2018-02-21T11:15:57.139Z,40.65
2018-02-21T11:18:33.744Z,42.05
2018-02-21T11:21:04.967Z,40.90
2018-02-21T11:23:36.232Z,39.67
2018-02-21T11:26:07.362Z,40.50
2018-02-21T11:28:40.291Z,40.35
2018-02-21T11:34:55.940Z,41.35
2018-02-21T11:37:28.583Z,40.53
2018-02-21T11:40:00.536Z,45.83
2018-02-21T11:42:31.204Z,42.07
2018-02-21T11:45:44.512Z,41.53
2018-02-21T11:48:17.656Z,41.22
2018-02-21T11:50:51.097Z,40.90
2018-02-21T11:53:32.933Z,42.22
2018-02-21T11:56:04.590Z,42.65
2018-02-21T11:58:39.999Z,45.35
2018-02-21T12:01:16.832Z,45.42
2018-02-21T12:03:48.254Z,45.22
2018-02-21T12:06:19.334Z,42.33
2018-02-21T12:08:51.047Z,42.10
2018-02-21T12:12:01.104Z,44.78
2018-02-21T12:14:36.408Z,42.27
2018-02-21T12:17:07.175Z,40.47
2018-02-21T12:19:56.614Z,40.63
2018-02-21T12:22:27.843Z,41.50
2018-02-21T12:25:02.933Z,40.20
2018-02-21T12:27:34.423Z,41.53
2018-02-21T12:30:06.026Z,42.95
2018-02-21T12:32:37.411Z,39.15
2018-02-21T12:35:07.633Z,40.97
2018-02-21T12:37:39.246Z,40.67
2018-02-21T12:40:14.575Z,40.90
2018-02-21T12:42:48.149Z,40.17
2018-02-21T12:45:26.629Z,41.50
2018-02-21T12:48:01.053Z,41.10
2018-02-21T12:50:32.025Z,38.65
2018-02-21T12:53:50.846Z,39.50
2018-02-21T12:57:12.532Z,42.47
2018-02-21T12:59:55.270Z,41.50
2018-02-21T13:02:43.518Z,39.50
2018-02-21T13:05:19.694Z,37.95
2018-02-21T13:08:11.859Z,40.40
2018-02-21T13:10:58.122Z,40.12
2018-02-21T13:16:19.380Z,39.38
2018-02-21T13:18:53.557Z,41.53
2018-02-21T13:25:00.143Z,39.47
2018-02-21T13:27:31.520Z,37.80
2018-02-21T13:30:24.423Z,35.55
2018-02-21T13:32:57.543Z,36.95
2018-02-21T13:35:28.581Z,37.35
2018-02-21T13:37:59.615Z,32.70
2018-02-21T13:40:36.827Z,39.50
2018-02-21T13:43:15.211Z,36.10
2018-02-21T13:45:48.305Z,38.35
2018-02-21T13:48:22.908Z,39.00
2018-02-21T13:51:25.346Z,38.40
2018-02-21T13:54:01.823Z,39.50
2018-02-21T13:56:51.053Z,39.83
2018-02-21T13:59:27.457Z,38.80
2018-02-21T14:02:09.441Z,39.35
2018-02-21T14:04:45.173Z,39.25
2018-02-21T14:07:50.254Z,38.70
2018-02-21T14:10:29.225Z,40.05
2018-02-21T14:13:38.295Z,38.30
2018-02-21T14:16:14.331Z,40.53
2018-02-21T14:19:08.488Z,41.60
2018-02-21T14:21:40.856Z,40.15
2018-02-21T14:24:12.207Z,38.63
2018-02-21T14:27:21.953Z,38.78
2018-02-21T14:30:09.126Z,35.28
2018-02-21T14:33:32.584Z,33.90
2018-02-21T14:36:39.376Z,33.38
2018-02-21T14:39:29.956Z,34.50
2018-02-21T14:42:08.367Z,35.20
2018-02-21T14:44:42.187Z,34.38
2018-02-21T14:47:21.765Z,32.15
2018-02-21T14:50:23.983Z,33.47
2018-02-21T14:53:05.531Z,35.13
2018-02-21T14:56:15.625Z,35.22
2018-02-21T14:58:55.930Z,35.73
2018-02-21T15:01:34.445Z,37.03
2018-02-21T15:04:06.014Z,36.90
2018-02-21T15:06:55.223Z,37.30
2018-02-21T15:09:36.310Z,39.50
2018-02-21T15:12:08.117Z,36.90
2018-02-21T15:15:12.623Z,36.67
2018-02-21T15:17:52.218Z,37.45
2018-02-21T15:20:30.698Z,35.58
2018-02-21T15:23:03.177Z,39.63
2018-02-21T15:26:08.859Z,40.08
2018-02-21T15:28:40.159Z,35.85
2018-02-21T15:31:21.934Z,36.55
2018-02-21T15:34:07.543Z,36.30
2018-02-21T15:37:32.823Z,39.58
2018-02-21T15:40:37.992Z,37.00
2018-02-21T15:43:18.722Z,41.28
2018-02-21T15:46:10.818Z,37.60
2018-02-21T15:51:42.138Z,41.13
2018-02-21T15:54:34.958Z,36.90
2018-02-21T15:57:09.670Z,40.80
2018-02-21T15:59:43.109Z,44.08
2018-02-21T16:02:16.022Z,44.07
2018-02-21T16:04:47.907Z,43.33
2018-02-21T16:07:21.347Z,42.15
2018-02-21T16:09:57.556Z,44.13
2018-02-21T16:13:33.758Z,42.72
2018-02-21T16:16:05.334Z,44.37
2018-02-21T16:18:36.903Z,41.10
2018-02-21T16:21:08.435Z,43.30
2018-02-21T16:23:40.438Z,43.30
2018-02-21T16:26:11.390Z,46.60
2018-02-21T16:28:43.669Z,43.97
2018-02-21T16:31:27.618Z,45.08
2018-02-21T16:34:03.318Z,45.60
2018-02-21T16:36:36.054Z,46.95
2018-02-21T16:39:08.733Z,47.67
2018-02-21T16:41:42.399Z,48.95
2018-02-21T16:44:13.296Z,46.65
2018-02-21T16:46:44.338Z,46.33
2018-02-21T16:49:41.141Z,49.50
2018-02-21T16:52:13.880Z,50.95
2018-02-21T16:54:49.744Z,50.28
2018-02-21T16:57:19.978Z,51.13
2018-02-21T16:59:52.422Z,51.83
2018-02-21T17:02:23.906Z,51.90
2018-02-21T17:04:54.614Z,52.00
2018-02-21T17:07:25.898Z,54.00
2018-02-21T17:09:57.389Z,52.42
2018-02-21T17:12:28.532Z,54.15
2018-02-21T17:14:58.793Z,52.25
2018-02-21T17:17:57.488Z,50.47
2018-02-21T17:20:33.130Z,51.13
2018-02-21T17:23:03.882Z,54.75
2018-02-21T17:25:35.021Z,52.65
2018-02-21T17:28:06.467Z,51.10
2018-02-21T17:30:37.036Z,51.92
2018-02-21T17:33:08.331Z,53.40
2018-02-21T17:39:16.186Z,54.08
2018-02-21T17:41:47.646Z,53.28
2018-02-21T17:44:17.918Z,53.67
2018-02-21T17:46:48.308Z,53.50
2018-02-21T17:49:20.449Z,55.75
2018-02-21T17:51:54.749Z,52.50
2018-02-21T17:54:28.053Z,51.50
2018-02-21T17:56:58.875Z,55.57
2018-02-21T18:05:44.073Z,53.10
2018-02-21T18:08:15.475Z,54.13
2018-02-21T18:10:46.266Z,55.77
2018-02-21T18:13:16.479Z,56.40
2018-02-21T18:15:47.450Z,54.83
2018-02-21T18:18:18.348Z,56.10
2018-02-21T18:20:51.737Z,58.78
2018-02-21T18:23:22.713Z,55.05
2018-02-21T18:25:52.966Z,53.58
2018-02-21T18:28:27.056Z,58.87
2018-02-21T18:30:57.883Z,59.38
2018-02-21T18:33:30.733Z,52.30
2018-02-21T18:36:19.327Z,56.37
2018-02-21T18:38:50.844Z,55.20
2018-02-21T18:41:23.654Z,51.92
2018-02-21T18:43:58.425Z,54.75
2018-02-21T18:46:29.102Z,53.70
2018-02-21T18:49:00.166Z,46.95
2018-02-21T18:51:30.878Z,46.03
2018-02-21T18:54:01.966Z,43.53
2018-02-21T18:56:34.010Z,41.60
2018-02-21T18:59:04.975Z,43.42
2018-02-21T19:01:35.964Z,42.93
2018-02-21T19:04:06.704Z,47.42
2018-02-21T19:06:44.364Z,45.95
2018-02-21T19:09:16.446Z,44.40
2018-02-21T19:11:49.490Z,42.95
2018-02-21T19:14:20.005Z,46.47
2018-02-21T19:16:51.732Z,46.35
2018-02-21T19:19:22.206Z,44.90
2018-02-21T19:21:53.148Z,48.93
2018-02-21T19:24:23.566Z,46.03
2018-02-21T19:26:54.357Z,48.10
2018-02-21T19:29:24.937Z,44.22
2018-02-21T19:31:55.675Z,42.67
2018-02-21T19:34:30.288Z,43.70
2018-02-21T19:37:08.676Z,46.77
2018-02-21T19:39:43.069Z,44.55
2018-02-21T19:42:14.478Z,43.13
2018-02-21T19:44:45.178Z,46.08
2018-02-21T19:47:15.832Z,48.22
2018-02-21T19:49:46.931Z,45.50
2018-02-21T19:52:17.670Z,48.63
2018-02-21T19:54:49.012Z,50.60
2018-02-21T19:57:20.744Z,48.58
2018-02-21T19:59:51.210Z,46.20
2018-02-21T20:02:21.779Z,46.95
2018-02-21T20:04:52.869Z,47.38
2018-02-21T20:07:24.290Z,47.72
2018-02-21T20:09:55.016Z,47.65
2018-02-21T20:12:26.225Z,45.22
2018-02-21T20:14:57.754Z,48.35
2018-02-21T20:17:28.557Z,49.60
2018-02-21T20:20:00.189Z,46.85
2018-02-21T20:22:45.501Z,46.20
2018-02-21T20:25:26.149Z,44.50
2018-02-21T20:27:56.890Z,45.50
2018-02-21T20:30:28.366Z,46.95
2018-02-21T20:33:00.061Z,47.22
2018-02-21T20:35:30.992Z,45.40
2018-02-21T20:38:01.925Z,48.47
2018-02-21T20:40:33.599Z,49.58
2018-02-21T20:43:03.948Z,46.08
2018-02-21T20:45:34.134Z,44.20
2018-02-21T20:48:07.999Z,45.33
2018-02-21T20:50:41.681Z,46.37
2018-02-21T20:53:13.370Z,44.72
2018-02-21T20:55:44.468Z,45.65
2018-02-21T20:58:16.750Z,44.38
2018-02-21T21:00:48.055Z,45.47
2018-02-21T21:03:19.186Z,45.05
2018-02-21T21:05:49.429Z,48.40
2018-02-21T21:08:20.855Z,48.20
2018-02-21T21:10:52.421Z,47.28
2018-02-21T21:13:35.053Z,50.50
2018-02-21T21:16:08.102Z,46.37
2018-02-21T21:18:39.086Z,46.17
2018-02-21T21:21:09.404Z,44.47
2018-02-21T21:23:40.331Z,47.88
2018-02-21T21:26:10.475Z,46.80
2018-02-21T21:28:41.150Z,45.33
2018-02-21T21:31:13.114Z,46.83
2018-02-21T21:33:43.922Z,48.40
2018-02-21T21:36:14.709Z,44.17
2018-02-21T21:38:44.946Z,45.70
2018-02-21T21:41:16.344Z,46.55
2018-02-21T21:43:48.292Z,44.50
2018-02-21T21:49:36.909Z,43.35
2018-02-21T21:52:13.178Z,45.78
2018-02-21T21:54:45.872Z,44.33
2018-02-21T21:57:17.658Z,44.20
2018-02-21T21:59:50.286Z,44.78
2018-02-21T22:02:25.671Z,46.42
2018-02-21T22:04:57.246Z,48.67
2018-02-21T22:07:28.526Z,44.90
2018-02-21T22:09:59.969Z,47.78
2018-02-21T22:12:38.767Z,45.88
2018-02-21T22:15:10.404Z,45.45
2018-02-21T22:17:42.258Z,44.88
2018-02-21T22:20:18.538Z,47.72
2018-02-21T22:22:49.671Z,47.35
2018-02-21T22:25:21.242Z,44.97
2018-02-21T22:27:52.989Z,44.47
2018-02-21T22:30:24.819Z,43.13
2018-02-21T22:34:20.298Z,44.10
2018-02-21T22:36:51.319Z,46.40
2018-02-21T22:39:22.129Z,45.33
2018-02-21T22:41:53.321Z,44.83
2018-02-21T22:44:23.995Z,46.15
2018-02-21T22:46:55.019Z,43.67
2018-02-21T22:49:25.718Z,39.60
2018-02-21T22:51:57.207Z,42.58
2018-02-21T22:54:28.274Z,41.75
2018-02-21T22:56:59.026Z,38.77
2018-02-21T22:59:30.222Z,39.00
2018-02-21T23:02:01.162Z,41.70
2018-02-21T23:04:31.389Z,41.03
2018-02-21T23:07:02.631Z,43.97
2018-02-21T23:09:32.765Z,41.50
2018-02-21T23:12:04.181Z,39.08
2018-02-21T23:14:35.642Z,41.97
2018-02-21T23:17:07.192Z,43.00
2018-02-21T23:19:38.333Z,42.42
2018-02-21T23:22:09.491Z,42.70
2018-02-21T23:24:40.394Z,42.55
2018-02-21T23:27:12.185Z,45.20
2018-02-21T23:29:42.949Z,44.30
2018-02-21T23:32:13.269Z,42.65
2018-02-21T23:34:43.574Z,41.30
2018-02-21T23:37:15.070Z,44.20
2018-02-21T23:39:45.750Z,44.50
2018-02-21T23:42:16.854Z,41.83
2018-02-21T23:44:47.607Z,41.92
2018-02-21T23:47:18.299Z,42.20
2018-02-21T23:49:48.942Z,44.37
2018-02-21T23:52:20.086Z,42.72
2018-02-21T23:54:51.797Z,43.33
2018-02-21T23:57:22.778Z,44.30
2018-02-21T23:59:54.576Z,44.75
